Time;durP1;ratioP1;P1;durP2;ratioP2;P2;SDS_P1;SDS_P2;PMS_P1;PMS_P2;Temp;Humidity;BMP_temperature;BMP_pressure;BME280_temperature;BME280_humidity;BME280_pressure;Samples;Min_cycle;Max_cycle;Signal;HPM_P1;HPM_P2
2021/08/08 00:00:54;;;;;;;0.85;0.77;;;;;;;16.15;85.47;95790.56;5013634;28;20057;-73
2021/08/08 00:03:20;;;;;;;4.00;0.80;;;;;;;16.16;85.52;95783.91;5018164;28;20041;-73
2021/08/08 00:05:49;;;;;;;2.10;0.70;;;;;;;16.14;85.65;95786.25;5033695;28;20046;-73
2021/08/08 00:08:16;;;;;;;3.10;0.70;;;;;;;16.18;84.66;95793.38;5033274;28;20045;-73
2021/08/08 00:10:42;;;;;;;3.28;0.70;;;;;;;16.16;84.60;95778.41;5033875;28;20053;-73
2021/08/08 00:13:09;;;;;;;1.83;0.60;;;;;;;16.14;83.86;95780.75;5032763;28;20053;-73
2021/08/08 00:15:37;;;;;;;1.15;0.60;;;;;;;16.10;84.41;95779.91;5033157;28;20136;-73
2021/08/08 00:18:05;;;;;;;1.75;0.70;;;;;;;16.06;84.56;95779.81;5032870;28;20103;-73
2021/08/08 00:20:31;;;;;;;7.88;0.85;;;;;;;16.07;84.56;95788.84;5033463;28;20409;-73
2021/08/08 00:22:59;;;;;;;1.15;0.70;;;;;;;16.06;84.37;95784.53;5033052;28;20037;-73
2021/08/08 00:25:26;;;;;;;4.28;0.65;;;;;;;16.06;83.76;95785.31;5032493;28;20078;-73
2021/08/08 00:27:53;;;;;;;2.78;0.63;;;;;;;16.06;83.99;95781.78;5033488;28;20053;-73
2021/08/08 00:30:19;;;;;;;2.63;0.57;;;;;;;16.07;84.09;95784.16;5033017;28;20052;-73
2021/08/08 00:32:46;;;;;;;4.07;0.50;;;;;;;16.07;84.45;95786.09;5032555;28;20086;-73
2021/08/08 00:35:13;;;;;;;0.68;0.60;;;;;;;16.08;84.34;95799.50;5032643;28;20056;-73
2021/08/08 00:37:42;;;;;;;2.33;0.60;;;;;;;16.08;84.44;95793.22;5033186;28;20058;-72
2021/08/08 00:40:11;;;;;;;3.13;0.75;;;;;;;16.06;83.61;95795.50;5030570;28;20050;-72
2021/08/08 00:42:38;;;;;;;6.00;0.70;;;;;;;16.05;83.66;95799.44;5033126;28;20067;-73
2021/08/08 00:45:06;;;;;;;4.32;0.80;;;;;;;16.07;83.63;95797.09;5032609;28;20042;-73
2021/08/08 00:47:33;;;;;;;4.10;0.70;;;;;;;16.07;83.65;95788.84;5033243;28;20500;-73
2021/08/08 00:49:59;;;;;;;2.88;0.60;;;;;;;16.12;83.83;95788.53;5032953;28;20508;-73
2021/08/08 00:52:26;;;;;;;2.03;0.60;;;;;;;16.14;83.86;95778.00;5032351;28;20049;-73
2021/08/08 00:54:52;;;;;;;2.25;0.68;;;;;;;16.14;83.20;95775.25;5032978;28;20056;-73
2021/08/08 00:57:20;;;;;;;2.35;0.75;;;;;;;16.14;83.53;95769.75;5032556;28;20056;-73
2021/08/08 00:59:47;;;;;;;1.05;0.50;;;;;;;16.15;82.89;95776.84;5032863;28;20508;-73
2021/08/08 01:02:13;;;;;;;0.90;0.60;;;;;;;16.13;82.63;95782.72;5032183;28;20061;-73
2021/08/08 01:04:45;;;;;;;4.95;0.85;;;;;;;16.13;82.86;95790.13;5032408;28;20045;-73
2021/08/08 01:07:16;;;;;;;2.20;0.60;;;;;;;16.11;82.68;95795.22;5032191;28;20462;-73
2021/08/08 01:09:49;;;;;;;3.10;0.60;;;;;;;16.12;82.78;95788.53;5032772;28;20050;-72
2021/08/08 01:12:15;;;;;;;3.50;0.93;;;;;;;16.08;83.04;95783.00;5030813;28;20145;-72
2021/08/08 01:14:45;;;;;;;0.80;0.57;;;;;;;16.10;83.21;95771.66;5032760;28;20049;-72
2021/08/08 01:17:15;;;;;;;3.13;0.70;;;;;;;16.07;83.32;95775.13;5032100;28;20061;-72
2021/08/08 01:19:47;;;;;;;3.10;0.70;;;;;;;16.04;83.61;95793.16;5032559;28;20045;-72
2021/08/08 01:22:14;;;;;;;1.98;0.68;;;;;;;16.05;83.76;95813.94;5031557;28;20099;-72
2021/08/08 01:24:45;;;;;;;3.30;0.95;;;;;;;16.07;83.73;95830.06;5032283;28;20042;-72
2021/08/08 01:27:11;;;;;;;1.00;0.50;;;;;;;16.04;83.26;95844.53;5031565;28;20052;-73
2021/08/08 01:29:38;;;;;;;4.53;0.90;;;;;;;16.01;83.45;95842.50;5032207;28;20072;-72
2021/08/08 01:32:05;;;;;;;2.10;0.50;;;;;;;16.00;83.64;95846.41;5031961;28;20065;-73
2021/08/08 01:34:31;;;;;;;5.03;0.80;;;;;;;16.00;83.47;95829.94;5031777;28;20068;-72
2021/08/08 01:36:58;;;;;;;2.75;0.77;;;;;;;15.97;83.28;95825.16;5032049;28;20055;-73
2021/08/08 01:39:25;;;;;;;2.47;0.60;;;;;;;15.96;83.45;95823.59;5031803;28;20052;-73
2021/08/08 01:41:57;;;;;;;0.85;0.50;;;;;;;15.94;82.84;95820.41;5031974;28;20518;-72
2021/08/08 01:44:27;;;;;;;6.35;1.00;;;;;;;15.89;82.85;95814.06;5030645;28;20044;-72
2021/08/08 01:46:56;;;;;;;3.30;1.02;;;;;;;15.89;83.08;95816.81;5031992;28;20061;-72
2021/08/08 01:49:27;;;;;;;1.50;0.70;;;;;;;15.91;83.08;95816.44;5031385;28;20838;-73
2021/08/08 01:51:55;;;;;;;3.33;0.63;;;;;;;15.89;83.53;95814.06;5031869;28;20049;-72
2021/08/08 01:54:22;;;;;;;1.90;0.52;;;;;;;15.89;83.46;95808.56;5031273;28;20054;-72
2021/08/08 01:56:48;;;;;;;2.47;0.73;;;;;;;15.87;83.76;95805.41;5031847;28;20049;-73
2021/08/08 01:59:16;;;;;;;3.22;0.77;;;;;;;15.78;83.92;95810.34;5031241;28;20515;-72
2021/08/08 02:01:43;;;;;;;2.75;0.60;;;;;;;15.67;84.17;95801.13;5031704;28;20057;-73
2021/08/08 02:04:17;;;;;;;3.35;0.70;;;;;;;15.60;85.11;95795.44;5030767;28;20051;-72
2021/08/08 02:06:43;;;;;;;2.78;0.60;;;;;;;15.58;85.53;95806.00;5031639;28;20049;-72
2021/08/08 02:09:10;;;;;;;1.98;0.82;;;;;;;15.58;85.39;95806.00;5030990;28;20531;-71
2021/08/08 02:11:37;;;;;;;2.92;0.70;;;;;;;15.55;85.21;95812.22;5031628;28;20052;-72
2021/08/08 02:14:04;;;;;;;3.45;0.90;;;;;;;15.60;85.77;95817.41;5031011;28;20053;-71
2021/08/08 02:16:33;;;;;;;4.05;0.65;;;;;;;15.56;84.86;95828.34;5031325;28;20404;-74
2021/08/08 02:19:00;;;;;;;1.60;0.65;;;;;;;15.53;85.37;95839.22;5031453;28;20049;-72
2021/08/08 02:21:27;;;;;;;3.25;0.50;;;;;;;15.49;85.15;95835.63;5030993;28;20065;-72
2021/08/08 02:23:54;;;;;;;0.50;0.50;;;;;;;15.43;85.62;95839.81;5031179;28;20041;-74
2021/08/08 02:26:20;;;;;;;2.45;0.60;;;;;;;15.41;86.02;95853.91;5030755;28;20408;-72
2021/08/08 02:28:47;;;;;;;1.60;0.55;;;;;;;15.39;85.89;95856.19;5031462;28;20076;-72
2021/08/08 02:31:13;;;;;;;1.80;0.60;;;;;;;15.37;85.80;95858.50;5030539;28;20045;-74
2021/08/08 02:33:41;;;;;;;4.78;0.60;;;;;;;15.37;85.77;95866.75;5030827;28;20041;-72
2021/08/08 02:36:08;;;;;;;2.97;0.70;;;;;;;15.38;86.26;95869.13;5030659;28;20045;-72
2021/08/08 02:38:34;;;;;;;1.95;0.70;;;;;;;15.31;86.77;95871.72;5031011;28;20053;-72
2021/08/08 02:41:00;;;;;;;3.03;0.73;;;;;;;15.24;87.04;95877.03;5031096;28;20068;-72
2021/08/08 02:43:27;;;;;;;3.92;1.30;;;;;;;15.23;87.32;95874.66;5030541;28;20034;-72
2021/08/08 02:45:53;;;;;;;1.73;0.82;;;;;;;15.19;87.50;95880.09;5031059;28;20412;-71
2021/08/08 02:48:20;;;;;;;1.48;0.70;;;;;;;15.17;87.91;95887.88;5030549;28;20049;-72
2021/08/08 02:50:48;;;;;;;2.28;0.70;;;;;;;15.14;88.08;95883.13;5030956;28;20104;-72
2021/08/08 02:53:15;;;;;;;2.78;0.70;;;;;;;15.15;88.45;95873.72;5030344;28;20452;-72
2021/08/08 02:55:41;;;;;;;1.77;0.70;;;;;;;15.10;88.47;95882.25;5030651;28;20053;-72
2021/08/08 02:58:08;;;;;;;2.40;0.98;;;;;;;15.04;88.92;95873.50;5030261;28;20045;-72
2021/08/08 03:00:34;;;;;;;1.13;0.70;;;;;;;14.99;88.77;95875.72;5030952;28;20053;-72
2021/08/08 03:03:00;;;;;;;1.70;0.80;;;;;;;14.96;89.56;95887.41;5030350;28;20076;-72
2021/08/08 03:05:27;;;;;;;1.42;0.63;;;;;;;14.95;89.63;95888.56;5030447;28;20496;-73
2021/08/08 03:07:55;;;;;;;3.05;0.70;;;;;;;14.94;90.05;95892.47;5030709;28;20416;-73
2021/08/08 03:10:21;;;;;;;1.70;0.85;;;;;;;14.86;89.92;95892.28;5030313;28;20053;-72
2021/08/08 03:12:48;;;;;;;0.90;0.60;;;;;;;14.85;90.47;95893.44;5030730;28;20444;-72
2021/08/08 03:15:15;;;;;;;1.25;0.60;;;;;;;14.82;90.38;95891.41;5030082;28;20048;-72
2021/08/08 03:17:41;;;;;;;1.08;0.60;;;;;;;14.76;90.40;95892.81;5030842;28;20065;-72
2021/08/08 03:20:09;;;;;;;1.23;0.68;;;;;;;14.78;90.31;95887.78;5030121;28;20583;-72
2021/08/08 03:22:35;;;;;;;1.85;0.75;;;;;;;14.82;90.27;95912.53;5030305;28;20045;-72
2021/08/08 03:25:04;;;;;;;0.90;0.50;;;;;;;14.80;90.24;95912.91;5030038;28;20053;-72
2021/08/08 03:27:31;;;;;;;1.05;0.52;;;;;;;14.78;90.46;95920.69;5030593;28;20049;-72
2021/08/08 03:29:58;;;;;;;3.13;0.70;;;;;;;14.80;90.68;95923.84;5030579;28;20056;-72
2021/08/08 03:32:24;;;;;;;0.75;0.60;;;;;;;14.85;90.68;95934.56;5029983;28;20049;-72
2021/08/08 03:34:51;;;;;;;2.63;0.82;;;;;;;14.82;90.58;95932.50;5026822;28;20052;-72
2021/08/08 03:37:18;;;;;;;2.05;0.70;;;;;;;14.86;90.61;95938.88;5029826;28;20041;-73
2021/08/08 03:39:44;;;;;;;3.15;0.63;;;;;;;14.86;90.75;95938.88;5030347;28;20687;-73
2021/08/08 03:42:12;;;;;;;1.92;0.73;;;;;;;14.90;90.74;95943.66;5030154;28;20129;-72
2021/08/08 03:44:38;;;;;;;1.58;0.60;;;;;;;14.93;90.66;95948.41;5030411;28;20507;-72
2021/08/08 03:47:05;;;;;;;0.95;0.60;;;;;;;14.95;90.42;95957.09;5030125;28;20044;-73
2021/08/08 03:49:31;;;;;;;2.35;0.70;;;;;;;14.99;90.23;95952.50;5030198;28;20049;-72
2021/08/08 03:51:58;;;;;;;2.40;0.60;;;;;;;15.02;89.83;95966.28;5030333;28;20057;-72
2021/08/08 03:54:24;;;;;;;0.88;0.60;;;;;;;15.03;89.55;95961.59;5029943;28;20048;-72
2021/08/08 03:56:50;;;;;;;1.05;0.40;;;;;;;15.03;89.20;95970.59;5030479;28;20073;-73
2021/08/08 03:59:18;;;;;;;2.45;0.82;;;;;;;15.07;88.54;95967.94;5029766;28;20358;-72
2021/08/08 04:01:45;;;;;;;0.90;0.50;;;;;;;15.12;88.60;95979.44;5030303;28;20119;-73
2021/08/08 04:04:12;;;;;;;1.00;0.65;;;;;;;15.12;88.31;95970.41;5029461;28;20041;-72
2021/08/08 04:06:38;;;;;;;0.95;0.50;;;;;;;15.11;88.49;95977.84;5030435;28;20053;-72
2021/08/08 04:09:05;;;;;;;2.65;0.55;;;;;;;15.12;88.65;95992.34;5032857;28;20103;-72
2021/08/08 04:11:31;;;;;;;1.55;0.80;;;;;;;15.14;88.45;95992.81;5033669;28;20045;-72
2021/08/08 04:13:58;;;;;;;1.83;1.15;;;;;;;15.17;88.71;95986.59;5033767;28;20057;-73
2021/08/08 04:16:25;;;;;;;2.85;0.73;;;;;;;15.19;88.69;95989.81;5033238;28;20046;-73
2021/08/08 04:18:52;;;;;;;3.58;0.55;;;;;;;15.20;88.14;95985.91;5033574;28;20046;-72
2021/08/08 04:21:18;;;;;;;0.70;0.70;;;;;;;15.22;87.94;95983.59;5033052;28;20045;-72
2021/08/08 04:23:45;;;;;;;0.65;0.50;;;;;;;15.25;87.99;95988.38;5033555;28;20053;-73
2021/08/08 04:26:11;;;;;;;0.50;0.50;;;;;;;15.29;87.44;95986.47;5033178;28;20396;-72
2021/08/08 04:28:40;;;;;;;1.23;0.60;;;;;;;15.30;87.07;95996.31;5033733;28;20068;-72
2021/08/08 04:31:07;;;;;;;1.73;0.60;;;;;;;15.27;87.09;95996.25;5033013;28;20052;-72
2021/08/08 04:33:35;;;;;;;1.58;0.60;;;;;;;15.23;87.33;96001.63;5033148;28;20080;-72
2021/08/08 04:36:02;;;;;;;5.72;0.60;;;;;;;15.24;87.38;95995.00;5031383;28;20065;-72
2021/08/08 04:38:29;;;;;;;3.92;0.55;;;;;;;15.29;87.32;96005.69;5033070;28;20055;-72
2021/08/08 04:40:55;;;;;;;3.30;0.95;;;;;;;15.34;86.90;96002.66;5032941;28;20052;-72
2021/08/08 04:43:22;;;;;;;0.80;0.50;;;;;;;15.27;86.81;96013.50;5032692;28;20060;-74
2021/08/08 04:45:48;;;;;;;2.17;0.60;;;;;;;15.29;87.19;96002.94;5033254;28;20053;-72
2021/08/08 04:48:15;;;;;;;1.83;0.50;;;;;;;15.30;86.88;95998.28;5032616;28;20045;-72
2021/08/08 04:50:43;;;;;;;3.03;0.55;;;;;;;15.33;86.76;96001.09;5032988;28;20053;-73
2021/08/08 04:53:13;;;;;;;1.77;0.80;;;;;;;15.38;86.82;96013.72;5012717;28;20046;-72
2021/08/08 04:55:39;;;;;;;0.73;0.50;;;;;;;15.41;86.74;96007.53;5013287;28;20057;-72
2021/08/08 04:58:06;;;;;;;0.70;0.40;;;;;;;15.50;86.46;96013.59;5012610;28;20054;-73
2021/08/08 05:00:32;;;;;;;1.42;0.45;;;;;;;15.54;85.86;96019.19;5013372;28;20066;-73
2021/08/08 05:03:00;;;;;;;0.82;0.70;;;;;;;15.55;86.00;96007.84;5022638;28;20052;-73
2021/08/08 05:05:26;;;;;;;2.15;0.60;;;;;;;15.57;85.48;96018.47;5032356;28;20096;-72
2021/08/08 05:07:54;;;;;;;3.33;0.60;;;;;;;15.62;85.77;96026.44;5032659;28;20128;-73
2021/08/08 05:10:24;;;;;;;0.75;0.60;;;;;;;15.67;85.49;96028.13;5032346;28;20060;-73
2021/08/08 05:12:51;;;;;;;2.60;0.60;;;;;;;15.71;84.89;96027.03;5032729;28;20408;-73
2021/08/08 05:15:17;;;;;;;1.02;0.40;;;;;;;15.73;85.19;96024.75;5032082;28;20515;-73
2021/08/08 05:17:44;;;;;;;1.55;0.60;;;;;;;15.80;85.61;96030.38;5032559;28;20049;-73
2021/08/08 05:20:11;;;;;;;1.40;0.63;;;;;;;15.83;85.37;96018.69;5031992;28;20111;-73
2021/08/08 05:22:38;;;;;;;2.38;0.60;;;;;;;15.89;85.21;96022.75;5032506;28;20045;-72
2021/08/08 05:25:07;;;;;;;1.55;0.70;;;;;;;15.91;85.14;96016.88;5031392;28;20123;-72
2021/08/08 05:27:34;;;;;;;2.33;0.93;;;;;;;15.94;85.32;96007.94;5032521;28;20057;-74
2021/08/08 05:30:00;;;;;;;1.10;0.80;;;;;;;15.98;85.61;96019.00;5031964;28;20046;-73
2021/08/08 05:32:27;;;;;;;2.80;1.50;;;;;;;16.00;84.98;96016.69;5031547;28;20038;-73
2021/08/08 05:34:53;;;;;;;0.80;0.60;;;;;;;16.04;85.00;96028.53;5031944;28;20515;-73
2021/08/08 05:37:20;;;;;;;3.83;0.82;;;;;;;16.10;85.02;96021.59;5031708;28;20389;-73
2021/08/08 05:39:46;;;;;;;1.65;1.10;;;;;;;16.16;84.86;96022.88;5032071;28;20527;-73
2021/08/08 05:42:14;;;;;;;2.50;1.00;;;;;;;16.17;84.67;96027.22;5031513;28;20050;-72
2021/08/08 05:44:40;;;;;;;1.52;0.90;;;;;;;16.14;83.93;96027.97;5031869;28;20057;-73
2021/08/08 05:47:07;;;;;;;1.90;0.88;;;;;;;16.15;84.40;96035.84;5031648;28;20072;-73
2021/08/08 05:49:35;;;;;;;1.45;0.70;;;;;;;16.19;84.29;96030.41;5031775;28;20056;-73
2021/08/08 05:52:02;;;;;;;3.40;0.90;;;;;;;16.20;83.70;96032.00;5031622;28;20045;-73
2021/08/08 05:54:28;;;;;;;1.15;0.68;;;;;;;16.22;83.51;96026.13;5031480;28;20037;-73
2021/08/08 05:56:55;;;;;;;2.15;1.02;;;;;;;16.25;83.52;96030.91;5031662;28;20053;-72
2021/08/08 05:59:23;;;;;;;1.27;0.80;;;;;;;16.31;84.27;96033.00;5031358;28;20049;-72
2021/08/08 06:01:49;;;;;;;0.90;0.60;;;;;;;16.37;83.20;96036.25;5031702;28;20052;-73
2021/08/08 06:04:16;;;;;;;1.33;0.80;;;;;;;16.43;83.23;96030.09;5030318;28;20504;-72
2021/08/08 06:06:43;;;;;;;1.85;1.05;;;;;;;16.49;83.53;96035.28;5031568;28;20064;-73
2021/08/08 06:09:09;;;;;;;1.63;1.00;;;;;;;16.57;83.88;96034.28;5028596;28;20049;-73
2021/08/08 06:11:37;;;;;;;4.43;0.95;;;;;;;16.62;83.16;96028.50;5028426;28;20092;-73
2021/08/08 06:14:03;;;;;;;1.42;0.82;;;;;;;16.64;83.34;96032.44;5027802;28;20049;-73
2021/08/08 06:16:31;;;;;;;2.15;0.80;;;;;;;16.73;82.50;96042.47;5028517;28;20053;-72
2021/08/08 06:18:57;;;;;;;3.13;0.88;;;;;;;16.78;82.16;96034.69;5027852;28;20046;-73
2021/08/08 06:21:24;;;;;;;2.65;0.80;;;;;;;16.83;82.32;96030.84;5027518;28;20057;-73
2021/08/08 06:23:50;;;;;;;2.35;0.70;;;;;;;16.86;80.51;96036.44;5028301;28;20053;-73
2021/08/08 06:26:17;;;;;;;0.77;0.60;;;;;;;16.88;80.16;96028.59;5027279;28;20058;-72
2021/08/08 06:28:43;;;;;;;2.72;0.80;;;;;;;16.94;80.66;96040.88;5027907;28;20053;-73
2021/08/08 06:31:10;;;;;;;1.23;0.80;;;;;;;16.94;80.08;96038.13;5026918;28;20045;-73
2021/08/08 06:33:38;;;;;;;0.77;0.68;;;;;;;16.99;79.49;96045.28;5031307;28;20057;-73
2021/08/08 06:36:05;;;;;;;1.33;0.95;;;;;;;17.07;80.27;96054.44;5027130;28;20052;-73
2021/08/08 06:38:31;;;;;;;2.58;1.25;;;;;;;17.12;80.53;96051.38;5027686;28;20125;-73
2021/08/08 06:40:58;;;;;;;1.40;0.70;;;;;;;17.19;81.24;96060.56;5027588;28;20045;-72
2021/08/08 06:43:24;;;;;;;2.05;0.88;;;;;;;17.19;79.35;96051.50;5027053;28;20050;-73
2021/08/08 06:45:51;;;;;;;3.38;0.80;;;;;;;17.12;79.67;96054.13;5027896;28;20061;-72
2021/08/08 06:48:17;;;;;;;5.25;1.05;;;;;;;17.10;80.85;96054.50;5026802;28;20056;-72
2021/08/08 06:50:45;;;;;;;1.85;0.75;;;;;;;17.09;81.90;96057.63;5027664;28;20670;-73
2021/08/08 06:53:11;;;;;;;2.17;0.70;;;;;;;17.11;80.86;96052.53;5027076;28;20176;-72
2021/08/08 06:55:38;;;;;;;1.02;0.77;;;;;;;17.14;80.93;96058.13;5027711;28;20060;-72
2021/08/08 06:58:05;;;;;;;2.83;0.90;;;;;;;17.14;80.40;96051.81;5027228;28;20061;-77
2021/08/08 07:00:31;;;;;;;1.20;0.80;;;;;;;17.10;80.51;96056.47;5027983;28;20061;-73
2021/08/08 07:02:58;;;;;;;2.40;0.75;;;;;;;17.11;81.20;96049.78;5027142;28;20061;-73
2021/08/08 07:05:24;;;;;;;2.17;0.73;;;;;;;17.14;81.23;96057.31;5027148;28;20046;-73
2021/08/08 07:07:52;;;;;;;1.30;0.82;;;;;;;17.18;81.45;96053.47;5027558;28;20440;-73
2021/08/08 07:10:19;;;;;;;2.50;1.02;;;;;;;17.20;81.24;96044.84;5026792;28;20073;-71
2021/08/08 07:12:45;;;;;;;2.70;1.00;;;;;;;17.25;81.31;96055.53;5027381;28;20053;-73
2021/08/08 07:15:12;;;;;;;2.42;0.95;;;;;;;17.28;81.00;96057.56;5026963;28;20099;-73
2021/08/08 07:17:38;;;;;;;2.30;1.00;;;;;;;17.33;81.07;96054.50;5027382;28;20060;-71
2021/08/08 07:20:06;;;;;;;2.88;0.80;;;;;;;17.40;81.24;96056.56;5027129;28;20049;-71
2021/08/08 07:22:33;;;;;;;2.95;0.70;;;;;;;17.46;81.25;96064.13;5027271;28;20053;-71
2021/08/08 07:25:01;;;;;;;2.00;0.90;;;;;;;17.52;81.39;96061.06;5027248;28;20049;-72
2021/08/08 07:27:27;;;;;;;4.13;0.85;;;;;;;17.56;81.59;96078.44;5027145;28;20408;-71
2021/08/08 07:29:54;;;;;;;3.03;0.98;;;;;;;17.59;81.77;96073.00;5027131;28;20080;-72
2021/08/08 07:32:20;;;;;;;2.10;0.95;;;;;;;17.64;80.11;96074.63;5026553;28;20480;-71
2021/08/08 07:34:47;;;;;;;3.70;0.80;;;;;;;17.64;78.73;96080.91;5026983;28;20482;-71
2021/08/08 07:37:14;;;;;;;2.42;0.70;;;;;;;17.61;78.62;96075.38;5026400;28;20052;-72
2021/08/08 07:39:40;;;;;;;5.00;1.05;;;;;;;17.64;78.34;96074.63;5026508;28;20057;-71
2021/08/08 07:42:08;;;;;;;5.00;0.80;;;;;;;17.65;78.95;96077.03;5026425;28;20508;-72
2021/08/08 07:44:35;;;;;;;1.40;1.15;;;;;;;17.68;78.77;96081.78;5031011;28;20053;-73
2021/08/08 07:47:01;;;;;;;3.38;0.98;;;;;;;17.65;78.06;96076.22;5030846;28;20050;-72
2021/08/08 07:49:27;;;;;;;1.92;0.85;;;;;;;17.70;78.85;96073.16;5029935;28;20433;-72
2021/08/08 07:51:54;;;;;;;1.55;0.80;;;;;;;17.69;77.29;96079.81;5030709;28;20076;-73
2021/08/08 07:54:21;;;;;;;5.25;3.60;;;;;;;17.68;77.20;96075.47;5030281;28;20052;-73
2021/08/08 07:56:47;;;;;;;2.67;1.25;;;;;;;17.79;77.32;96076.44;5031068;28;20057;-73
2021/08/08 07:59:15;;;;;;;1.08;0.80;;;;;;;17.85;76.67;96065.91;5030096;28;20045;-73
2021/08/08 08:01:42;;;;;;;2.17;0.70;;;;;;;18.04;76.90;96067.75;5030925;28;20487;-73
2021/08/08 08:04:08;;;;;;;2.67;0.70;;;;;;;18.19;75.23;96072.28;5029669;28;20053;-72
2021/08/08 08:06:35;;;;;;;3.10;0.70;;;;;;;18.35;75.60;96067.38;5030844;28;20107;-73
2021/08/08 08:09:01;;;;;;;4.95;0.77;;;;;;;18.36;71.84;96077.22;5030294;28;20046;-72
2021/08/08 08:11:28;;;;;;;1.60;0.65;;;;;;;18.35;72.59;96083.91;5030538;28;20053;-73
2021/08/08 08:13:54;;;;;;;2.15;0.80;;;;;;;18.30;72.06;96083.44;5030029;28;20053;-73
2021/08/08 08:16:22;;;;;;;1.17;0.70;;;;;;;18.19;71.36;96072.28;5029717;28;20057;-73
2021/08/08 08:18:48;;;;;;;3.58;1.75;;;;;;;18.24;73.34;96074.72;5030315;28;20064;-73
2021/08/08 08:21:15;;;;;;;3.08;0.70;;;;;;;18.20;70.75;96069.16;5029722;28;20046;-72
2021/08/08 08:23:41;;;;;;;1.25;0.75;;;;;;;18.25;72.88;96070.78;5030595;28;20049;-73
2021/08/08 08:26:08;;;;;;;3.30;0.80;;;;;;;18.17;70.12;96063.63;5029436;28;20052;-73
2021/08/08 08:28:34;;;;;;;8.73;0.80;;;;;;;18.07;70.01;96064.25;5029687;28;20508;-73
2021/08/08 08:31:01;;;;;;;2.28;0.65;;;;;;;18.12;70.97;96055.66;5030252;28;20056;-72
2021/08/08 08:33:28;;;;;;;1.08;0.57;;;;;;;18.17;70.26;96060.84;5029280;28;20053;-72
2021/08/08 08:35:55;;;;;;;1.58;0.70;;;;;;;18.49;70.46;96059.28;5029629;28;20064;-73
2021/08/08 08:38:21;;;;;;;2.53;0.65;;;;;;;18.78;69.67;96059.59;5029193;28;22234;-73
2021/08/08 08:40:48;;;;;;;2.60;0.55;;;;;;;19.10;68.19;96061.88;5029972;28;20060;-73
2021/08/08 08:43:15;;;;;;;2.30;0.63;;;;;;;20.00;64.84;96067.75;5029499;28;20456;-73
2021/08/08 08:45:45;;;;;;;1.77;0.70;;;;;;;21.08;60.67;96061.44;5030155;28;20436;-73
2021/08/08 08:48:16;;;;;;;4.22;0.70;;;;;;;21.77;57.56;96065.84;5029079;28;20064;-73
2021/08/08 08:50:45;;;;;;;2.65;0.80;;;;;;;22.32;56.65;96067.31;5030027;28;20057;-73
2021/08/08 08:53:12;;;;;;;1.92;0.60;;;;;;;23.27;54.44;96070.81;5008632;28;20077;-72
2021/08/08 08:55:39;;;;;;;3.38;0.88;;;;;;;23.82;52.25;96083.94;5010052;28;20053;-72
2021/08/08 08:58:06;;;;;;;2.42;0.77;;;;;;;24.84;53.60;96079.66;5009465;28;20516;-72
2021/08/08 09:00:32;;;;;;;2.70;0.40;;;;;;;25.50;50.92;96076.34;5009707;28;20066;-72
2021/08/08 09:02:59;;;;;;;2.80;1.30;;;;;;;25.33;46.21;96086.56;5019473;28;20053;-72
2021/08/08 09:05:27;;;;;;;2.50;0.90;;;;;;;24.62;45.41;96077.13;5028903;28;20531;-72
2021/08/08 09:07:54;;;;;;;1.60;0.60;;;;;;;24.01;49.96;96085.31;5029752;28;20061;-72
2021/08/08 09:10:23;;;;;;;2.95;0.65;;;;;;;24.20;47.99;96081.94;5028880;28;20060;-72
2021/08/08 09:12:57;;;;;;;1.35;0.68;;;;;;;24.66;47.60;96079.88;5029482;28;20480;-72
2021/08/08 09:15:32;;;;;;;1.20;0.60;;;;;;;24.40;48.42;96078.59;5028876;28;20053;-73
2021/08/08 09:18:10;;;;;;;2.88;0.70;;;;;;;24.63;46.20;96080.69;5029289;28;20480;-73
2021/08/08 09:20:37;;;;;;;1.33;0.63;;;;;;;25.06;48.08;96075.41;5028792;28;20042;-73
2021/08/08 09:23:05;;;;;;;1.38;0.63;;;;;;;24.53;47.88;96081.63;5028134;28;20053;-72
2021/08/08 09:25:31;;;;;;;0.77;0.43;;;;;;;24.42;49.86;96078.97;5028660;28;20428;-73
2021/08/08 09:28:07;;;;;;;2.10;0.60;;;;;;;24.58;47.58;96081.94;5025674;28;20053;-73
2021/08/08 09:30:37;;;;;;;1.63;0.60;;;;;;;24.50;47.04;96088.81;5028834;28;20389;-73
2021/08/08 09:33:04;;;;;;;2.47;0.70;;;;;;;24.04;48.24;96078.16;5031361;28;20064;-72
2021/08/08 09:35:34;;;;;;;2.85;0.65;;;;;;;23.93;49.06;96083.81;5028991;28;20057;-73
2021/08/08 09:38:03;;;;;;;1.33;0.68;;;;;;;23.51;52.00;96079.41;5028373;28;20072;-74
2021/08/08 09:40:32;;;;;;;1.40;0.70;;;;;;;23.15;52.08;96074.09;5028351;28;20111;-72
2021/08/08 09:42:59;;;;;;;0.77;0.65;;;;;;;22.69;53.45;96079.88;5029045;28;20049;-73
2021/08/08 09:45:39;;;;;;;1.23;0.65;;;;;;;22.71;52.17;96081.06;5028182;28;20052;-73
2021/08/08 09:48:09;;;;;;;3.40;0.60;;;;;;;22.62;53.60;96078.72;5028148;28;20054;-72
2021/08/08 09:50:35;;;;;;;2.05;0.70;;;;;;;22.42;54.69;96079.59;5028311;28;20071;-73
2021/08/08 09:53:04;;;;;;;1.73;0.90;;;;;;;22.24;56.04;96076.84;5026275;28;20045;-72
2021/08/08 09:55:34;;;;;;;1.73;0.80;;;;;;;22.12;55.11;96076.09;5028544;28;20057;-74
2021/08/08 09:58:02;;;;;;;1.52;0.82;;;;;;;22.00;53.95;96076.50;5028041;28;20056;-72
2021/08/08 10:00:33;;;;;;;3.65;1.10;;;;;;;21.72;53.94;96076.53;5028307;28;20052;-72
2021/08/08 10:03:01;;;;;;;2.65;1.10;;;;;;;21.67;53.80;96088.03;5029423;28;20052;-72
2021/08/08 10:05:47;;;;;;;3.08;0.80;;;;;;;21.37;51.12;96089.19;5076915;27;20402;-73
2021/08/08 10:08:16;;;;;;;2.75;0.80;;;;;;;21.30;55.89;96094.75;5064414;28;20061;-72
2021/08/08 10:10:44;;;;;;;4.72;0.80;;;;;;;21.35;54.04;96084.06;5064915;28;20056;-72
2021/08/08 10:13:41;;;;;;;0.85;0.50;;;;;;;21.50;51.53;96084.84;5064323;28;20079;-72
2021/08/08 10:16:10;;;;;;;1.20;0.60;;;;;;;21.67;54.64;96082.50;5029786;28;20060;-72
2021/08/08 10:18:41;;;;;;;3.00;0.88;;;;;;;21.86;51.22;96085.63;5065234;28;20110;-71
2021/08/08 10:21:10;;;;;;;2.95;0.70;;;;;;;21.77;52.92;96084.44;5064391;28;20052;-72
2021/08/08 10:23:38;;;;;;;4.20;1.02;;;;;;;21.48;53.80;96092.75;5064804;28;20072;-72
2021/08/08 10:26:05;;;;;;;1.58;0.70;;;;;;;21.53;55.26;96091.59;5064093;28;20053;-72
2021/08/08 10:28:32;;;;;;;2.35;0.60;;;;;;;21.54;54.59;96091.19;5064409;28;20140;-72
2021/08/08 10:31:00;;;;;;;5.18;0.70;;;;;;;21.41;55.79;96087.22;5064210;28;20057;-72
2021/08/08 10:33:26;;;;;;;2.72;0.77;;;;;;;21.40;57.23;96091.16;5063589;28;20049;-72
2021/08/08 10:35:53;;;;;;;0.85;0.60;;;;;;;21.34;56.22;96087.22;5067292;28;20079;-72
2021/08/08 10:38:21;;;;;;;1.60;0.60;;;;;;;21.33;59.16;96085.63;5082144;28;20048;-71
2021/08/08 10:40:49;;;;;;;1.17;0.70;;;;;;;21.42;57.53;96094.34;5083691;28;20805;-72
2021/08/08 10:43:24;;;;;;;2.08;0.60;;;;;;;21.40;56.08;96096.69;5083919;28;20044;-72
2021/08/08 10:45:50;;;;;;;1.35;0.55;;;;;;;21.21;53.07;96099.84;5084704;28;20075;-72
2021/08/08 10:48:17;;;;;;;2.15;0.65;;;;;;;20.96;54.84;96085.94;5083144;28;20071;-72
2021/08/08 10:50:46;;;;;;;1.85;0.70;;;;;;;21.05;54.99;96081.63;5083454;28;20550;-71
2021/08/08 10:53:25;;;;;;;1.75;0.63;;;;;;;21.15;55.18;96091.13;5083933;28;20052;-72
2021/08/08 10:56:04;;;;;;;4.47;0.70;;;;;;;21.27;58.95;96084.41;5084653;28;20047;-72
2021/08/08 10:58:33;;;;;;;1.38;0.77;;;;;;;21.22;57.35;96084.81;5084073;28;20055;-71
2021/08/08 11:00:59;;;;;;;1.50;0.60;;;;;;;21.09;57.84;96076.09;5084051;28;20431;-72
2021/08/08 11:03:26;;;;;;;2.30;0.77;;;;;;;21.15;58.49;96073.72;5083393;28;20678;-72
2021/08/08 11:05:52;;;;;;;3.50;0.93;;;;;;;21.35;56.15;96072.16;5084110;28;20502;-72
2021/08/08 11:08:24;;;;;;;1.80;0.57;;;;;;;21.53;57.08;96078.53;5083209;28;20101;-72
2021/08/08 11:10:51;;;;;;;1.08;0.50;;;;;;;21.75;55.85;96067.41;5083843;28;20127;-72
2021/08/08 11:13:22;;;;;;;1.50;0.70;;;;;;;21.74;56.10;96066.63;5083501;28;20052;-72
2021/08/08 11:15:49;;;;;;;2.72;0.88;;;;;;;21.76;55.76;96069.00;5077066;28;20076;-72
2021/08/08 11:18:16;;;;;;;1.73;0.50;;;;;;;21.77;56.94;96063.06;5069478;28;20052;-71
2021/08/08 11:20:43;;;;;;;2.65;0.60;;;;;;;21.67;56.44;96054.78;5070054;28;20173;-72
2021/08/08 11:23:11;;;;;;;1.88;0.60;;;;;;;21.75;57.58;96057.13;5051137;28;20476;-72
2021/08/08 11:25:41;;;;;;;1.95;0.68;;;;;;;21.86;54.65;96057.09;5069970;28;20411;-72
2021/08/08 11:28:09;;;;;;;1.00;0.57;;;;;;;21.88;55.27;96057.53;5069262;28;20051;-72
2021/08/08 11:30:44;;;;;;;4.80;0.70;;;;;;;21.83;53.09;96063.47;5068938;28;20059;-72
2021/08/08 11:33:12;;;;;;;0.65;0.47;;;;;;;21.88;54.94;96063.84;5068891;28;20049;-72
2021/08/08 11:35:39;;;;;;;4.30;0.60;;;;;;;21.82;52.40;96059.91;5069836;28;20403;-72